Time;durP1;ratioP1;P1;durP2;ratioP2;P2;SDS_P1;SDS_P2;PMS_P1;PMS_P2;Temp;Humidity;BMP_temperature;BMP_pressure;BME280_temperature;BME280_humidity;BME280_pressure;Samples;Min_cycle;Max_cycle;Signal;HPM_P1;HPM_P2
2023/01/13 00:01:17;;;;;;;;;;;;;;;15.26;nan;100360.94;5048871;28;19916;-35
2023/01/13 00:03:43;;;;;;;;;;;;;;;15.28;nan;100366.06;5047245;28;19928;-35
2023/01/13 00:06:11;;;;;;;;;;;;;;;15.23;nan;100364.19;5041683;28;20341;-36
2023/01/13 00:08:37;;;;;;;;;;;;;;;15.23;nan;100366.88;5044460;28;19963;-35
2023/01/13 00:11:02;;;;;;;;;;;;;;;15.22;nan;100365.28;5047652;28;19917;-35
2023/01/13 00:13:27;;;;;;;;;;;;;;;15.19;nan;100371.25;5042424;28;19917;-35
2023/01/13 00:15:57;;;;;;;;;;;;;;;15.20;nan;100372.06;5045364;28;20439;-36
2023/01/13 00:18:22;;;;;;;;;;;;;;;15.23;nan;100364.19;5040066;28;20449;-36
2023/01/13 00:20:56;;;;;;;;;;;;;;;15.18;nan;100366.16;5044483;28;19920;-35
2023/01/13 00:23:23;;;;;;;;;;;;;;;15.22;nan;100364.47;5039902;28;19929;-36
2023/01/13 00:25:49;;;;;;;;;;;;;;;15.25;nan;100367.41;5041309;28;19979;-35
2023/01/13 00:28:14;;;;;;;;;;;;;;;15.25;nan;100358.50;5045981;28;19925;-35
2023/01/13 00:30:39;;;;;;;;;;;;;;;15.26;nan;100360.94;5044535;28;19924;-35
2023/01/13 00:33:05;;;;;;;;;;;;;;;15.29;nan;100356.84;5043459;28;20055;-35
2023/01/13 00:35:30;;;;;;;;;;;;;;;15.36;nan;100360.81;5043711;28;19972;-35
2023/01/13 00:37:55;;;;;;;;;;;;;;;15.29;nan;100365.75;5040854;28;19975;-35
2023/01/13 00:40:20;;;;;;;;;;;;;;;15.31;nan;100366.28;5044068;28;19978;-35
2023/01/13 00:45:29;;;;;;;;;;;;;;;15.24;nan;100360.41;5040228;28;20048;-35
2023/01/13 00:47:55;;;;;;;;;;;;;;;15.30;nan;100361.97;5039111;28;20004;-36
2023/01/13 00:50:20;;;;;;;;;;;;;;;15.31;nan;100362.78;5042286;28;19924;-35
2023/01/13 00:52:46;;;;;;;;;;;;;;;15.31;nan;100363.56;5042856;28;19925;-35
2023/01/13 00:55:11;;;;;;;;;;;;;;;15.30;nan;100372.75;5046320;28;19921;-35
2023/01/13 00:57:36;;;;;;;;;;;;;;;15.32;nan;100365.19;5041368;28;19918;-35
2023/01/13 01:00:02;;;;;;;;;;;;;;;15.39;nan;100371.03;5043195;28;19917;-36
2023/01/13 01:02:27;;;;;;;;;;;;;;;15.40;nan;100361.81;5039681;28;20467;-35
2023/01/13 01:04:53;;;;;;;;;;;;;;;15.41;nan;100371.53;5042608;28;20413;-35
2023/01/13 01:07:18;;;;;;;;;;;;;;;15.38;nan;100352.41;5042442;28;20299;-35
2023/01/13 01:09:43;;;;;;;;;;;;;;;15.41;nan;100360.72;5037084;28;20271;-35
2023/01/13 01:12:09;;;;;;;;;;;;;;;15.37;nan;100346.22;5039728;28;19921;-35
2023/01/13 01:14:34;;;;;;;;;;;;;;;15.37;nan;100353.50;5040953;28;19917;-35
2023/01/13 01:16:59;;;;;;;;;;;;;;;15.35;nan;100359.19;5046205;28;19943;-35
2023/01/13 01:19:25;;;;;;;;;;;;;;;15.36;nan;100366.19;5042486;28;19917;-37
2023/01/13 01:21:50;;;;;;;;;;;;;;;15.34;nan;100362.19;5041784;28;20441;-36
2023/01/13 01:24:16;;;;;;;;;;;;;;;15.37;nan;100367.81;5042207;28;19978;-35
2023/01/13 01:26:41;;;;;;;;;;;;;;;15.37;nan;100367.00;5042879;28;19924;-35
2023/01/13 01:29:07;;;;;;;;;;;;;;;15.40;nan;100364.53;5038623;28;19943;-35
2023/01/13 01:31:33;;;;;;;;;;;;;;;15.42;nan;100359.63;5046064;28;19923;-35
2023/01/13 01:33:59;;;;;;;;;;;;;;;15.40;nan;100371.81;5041164;28;19921;-35
2023/01/13 01:36:27;;;;;;;;;;;;;;;15.47;nan;100366.88;5041384;28;20362;-35
2023/01/13 01:38:54;;;;;;;;;;;;;;;15.42;nan;100369.63;5039805;28;20021;-35
2023/01/13 01:41:22;;;;;;;;;;;;;;;15.44;nan;100359.38;5054760;28;19950;-35
2023/01/13 01:44:01;;;;;;;;;;;;;;;15.42;nan;100353.44;5041586;28;20302;-35
2023/01/13 01:46:29;;;;;;;;;;;;;;;15.46;nan;100350.97;5038864;28;20110;-36
2023/01/13 01:48:57;;;;;;;;;;;;;;;15.42;nan;100348.84;5042008;28;19917;-35
2023/01/13 01:51:23;;;;;;;;;;;;;;;15.45;nan;100350.19;5036663;28;19931;-37
2023/01/13 01:53:49;;;;;;;;;;;;;;;15.43;nan;100345.03;5043646;28;19924;-36
2023/01/13 01:56:16;;;;;;;;;;;;;;;15.46;nan;100337.47;5040562;28;19917;-36
2023/01/13 01:58:45;;;;;;;;;;;;;;;15.49;nan;100336.91;5038053;28;19952;-35
2023/01/13 02:01:14;;;;;;;;;;;;;;;15.44;nan;100329.69;5059199;22;20621;-36
2023/01/13 02:03:42;;;;;;;;;;;;;;;15.41;nan;100328.34;5042355;28;20282;-36
2023/01/13 02:06:07;;;;;;;;;;;;;;;15.47;nan;100329.09;5041717;28;20370;-36
2023/01/13 02:08:33;;;;;;;;;;;;;;;15.47;nan;100333.69;5043312;28;19924;-36
2023/01/13 02:10:59;;;;;;;;;;;;;;;15.50;nan;100328.50;5037788;28;19968;-36
2023/01/13 02:13:24;;;;;;;;;;;;;;;15.54;nan;100331.41;5043437;28;20009;-36
2023/01/13 02:15:49;;;;;;;;;;;;;;;15.54;nan;100326.81;5041960;28;19924;-36
2023/01/13 02:18:28;;;;;;;;;;;;;;;15.59;nan;100332.19;5044796;28;19921;-36
2023/01/13 02:20:53;;;;;;;;;;;;;;;15.55;nan;100320.31;5049520;28;19923;-36
2023/01/13 02:26:40;;;;;;;;;;;;;;;15.47;nan;100323.69;5043984;28;19931;-36
2023/01/13 02:31:53;;;;;;;;;;;;;;;15.45;nan;100330.47;5044095;28;19939;-36
2023/01/13 02:34:18;;;;;;;;;;;;;;;15.44;nan;100321.56;5044275;28;20006;-36
2023/01/13 02:36:43;;;;;;;;;;;;;;;15.55;nan;100333.03;5045664;28;20396;-36
2023/01/13 02:39:14;;;;;;;;;;;;;;;15.55;nan;100324.94;5042467;28;19982;-36
2023/01/13 02:44:26;;;;;;;;;;;;;;;15.46;nan;100322.09;5045758;28;20032;-36
2023/01/13 02:47:14;;;;;;;;;;;;;;;15.47;nan;100317.50;5046531;28;19920;-37
2023/01/13 02:49:45;;;;;;;;;;;;;;;15.50;nan;100325.00;5043261;28;20266;-36
2023/01/13 02:52:27;;;;;;;;;;;;;;;15.49;nan;100323.41;5045984;28;19972;-36
2023/01/13 02:55:07;;;;;;;;;;;;;;;15.46;nan;100313.19;5042311;28;19971;-36
2023/01/13 02:57:34;;;;;;;;;;;;;;;15.45;nan;100322.38;5046208;28;19978;-36
2023/01/13 03:00:00;;;;;;;;;;;;;;;15.46;nan;100319.38;5039731;28;19916;-36
2023/01/13 03:02:25;;;;;;;;;;;;;;;15.46;nan;100324.00;5043025;28;19921;-36
2023/01/13 03:04:52;;;;;;;;;;;;;;;15.43;nan;100318.03;5046761;28;20409;-37
2023/01/13 03:07:36;;;;;;;;;;;;;;;15.48;nan;100313.69;5046606;28;19923;-36
2023/01/13 03:10:20;;;;;;;;;;;;;;;15.45;nan;100323.19;5047376;28;19955;-37
2023/01/13 03:12:45;;;;;;;;;;;;;;;15.40;nan;100315.94;5044030;28;19959;-36
2023/01/13 03:15:11;;;;;;;;;;;;;;;15.39;nan;100314.31;5044463;28;19955;-36
2023/01/13 03:17:54;;;;;;;;;;;;;;;15.38;nan;100315.41;5045653;28;19997;-37
2023/01/13 03:20:26;;;;;;;;;;;;;;;15.37;nan;100313.81;5047179;28;20461;-36
2023/01/13 03:22:57;;;;;;;;;;;;;;;15.33;nan;100314.69;5044278;28;20394;-36
2023/01/13 03:25:24;;;;;;;;;;;;;;;15.37;nan;100303.03;5040144;28;19960;-37
2023/01/13 03:27:54;;;;;;;;;;;;;;;15.35;nan;100305.22;5043735;28;20867;-37
2023/01/13 03:30:21;;;;;;;;;;;;;;;15.35;nan;100307.91;5042548;28;19975;-36
2023/01/13 03:33:08;;;;;;;;;;;;;;;15.37;nan;100305.72;5043019;28;20003;-36
2023/01/13 03:35:42;;;;;;;;;;;;;;;15.34;nan;100308.19;5042988;28;19939;-36
2023/01/13 03:38:14;;;;;;;;;;;;;;;15.34;nan;100305.50;5043954;28;19916;-35
2023/01/13 03:40:45;;;;;;;;;;;;;;;15.34;nan;100306.31;5044808;28;20386;-36
2023/01/13 03:46:03;;;;;;;;;;;;;;;15.31;nan;100315.00;5040821;28;19924;-36
2023/01/13 03:48:31;;;;;;;;;;;;;;;15.35;nan;100313.31;5043302;28;20432;-36
2023/01/13 03:51:02;;;;;;;;;;;;;;;15.35;nan;100309.81;5042068;28;19951;-36
2023/01/13 03:53:57;;;;;;;;;;;;;;;15.33;nan;100312.81;5044409;28;19916;-36
2023/01/13 03:56:26;;;;;;;;;;;;;;;15.35;nan;100310.59;5027466;28;19924;-37
2023/01/13 03:58:52;;;;;;;;;;;;;;;15.34;nan;100300.09;5043547;28;20000;-35
2023/01/13 04:01:25;;;;;;;;;;;;;;;15.36;nan;100308.72;5046208;28;19925;-36
2023/01/13 04:03:58;;;;;;;;;;;;;;;15.37;nan;100299.53;5045327;28;19928;-37
2023/01/13 04:06:23;;;;;;;;;;;;;;;15.39;nan;100308.13;5043647;28;20322;-36
2023/01/13 04:08:54;;;;;;;;;;;;;;;15.39;nan;100297.34;5041998;28;19927;-36
2023/01/13 04:11:30;;;;;;;;;;;;;;;15.35;nan;100305.22;5041869;28;20004;-35
2023/01/13 04:13:56;;;;;;;;;;;;;;;15.35;nan;100307.09;5045650;28;20309;-36
2023/01/13 04:16:22;;;;;;;;;;;;;;;15.31;nan;100312.28;5047176;28;20215;-36
2023/01/13 04:18:48;;;;;;;;;;;;;;;15.28;nan;100301.28;5040423;28;19920;-36
2023/01/13 04:21:14;;;;;;;;;;;;;;;15.28;nan;100307.47;5043823;28;19920;-35
2023/01/13 04:23:39;;;;;;;;;;;;;;;15.29;nan;100295.59;5042820;28;20342;-36
2023/01/13 04:26:04;;;;;;;;;;;;;;;15.25;nan;100299.13;5039720;28;19924;-36
2023/01/13 04:28:30;;;;;;;;;;;;;;;15.26;nan;100288.06;5042641;28;19917;-36
2023/01/13 04:30:55;;;;;;;;;;;;;;;15.29;nan;100294.78;5040666;28;19917;-36
2023/01/13 04:33:20;;;;;;;;;;;;;;;15.33;nan;100287.69;5045215;28;19923;-36
2023/01/13 04:35:46;;;;;;;;;;;;;;;15.37;nan;100281.44;5042673;28;19921;-36
2023/01/13 04:38:13;;;;;;;;;;;;;;;15.34;nan;100271.22;5044195;28;19921;-36
2023/01/13 04:40:39;;;;;;;;;;;;;;;15.39;nan;100268.44;5041391;28;19928;-36
2023/01/13 04:43:05;;;;;;;;;;;;;;;15.38;nan;100266.84;5043792;28;19920;-36
2023/01/13 04:45:30;;;;;;;;;;;;;;;15.35;nan;100274.72;5047161;28;19940;-36
2023/01/13 04:47:55;;;;;;;;;;;;;;;15.33;nan;100280.41;5040559;28;20160;-36
2023/01/13 04:50:21;;;;;;;;;;;;;;;15.39;nan;100286.53;5044194;28;19925;-36
2023/01/13 04:52:47;;;;;;;;;;;;;;;15.46;nan;100278.09;5042318;28;19921;-36
2023/01/13 04:55:13;;;;;;;;;;;;;;;15.49;nan;100285.59;5043346;28;20370;-35
2023/01/13 04:57:38;;;;;;;;;;;;;;;15.52;nan;100282.31;5039815;28;19929;-36
2023/01/13 05:00:06;;;;;;;;;;;;;;;15.61;nan;100296.78;5043861;28;19916;-36
2023/01/13 05:02:32;;;;;;;;;;;;;;;15.63;nan;100308.13;5043629;28;19921;-36
2023/01/13 05:04:58;;;;;;;;;;;;;;;15.72;nan;100295.53;5040885;28;19924;-36
2023/01/13 05:07:23;;;;;;;;;;;;;;;15.73;nan;100315.25;5044772;28;20499;-37
2023/01/13 05:09:49;;;;;;;;;;;;;;;15.67;nan;100320.75;5045626;28;19920;-36
2023/01/13 05:17:42;;;;;;;;;;;;;;;15.80;nan;100324.63;5045472;28;20034;-36
2023/01/13 05:20:08;;;;;;;;;;;;;;;15.90;nan;100329.84;5043244;28;20399;-36
2023/01/13 05:25:20;;;;;;;;;;;;;;;15.83;nan;100326.72;5043299;28;19927;-36
2023/01/13 05:27:46;;;;;;;;;;;;;;;15.85;nan;100329.94;5040338;28;19935;-35
2023/01/13 05:30:11;;;;;;;;;;;;;;;15.87;nan;100338.53;5041935;28;19928;-36
2023/01/13 05:32:37;;;;;;;;;;;;;;;15.88;nan;100340.16;5042353;28;19916;-36
2023/01/13 05:35:02;;;;;;;;;;;;;;;15.89;nan;100344.44;5040519;28;19978;-36
2023/01/13 05:37:28;;;;;;;;;;;;;;;15.87;nan;100349.34;5040836;28;19917;-36
2023/01/13 05:45:22;;;;;;;;;;;;;;;15.76;nan;100357.88;5041392;28;20277;-36
2023/01/13 05:47:47;;;;;;;;;;;;;;;15.74;nan;100341.16;5038061;28;19924;-36
2023/01/13 05:50:12;;;;;;;;;;;;;;;15.70;nan;100351.75;5043266;28;19936;-36
2023/01/13 05:52:38;;;;;;;;;;;;;;;15.70;nan;100349.06;5044511;28;19917;-36
2023/01/13 05:55:03;;;;;;;;;;;;;;;15.68;nan;100346.66;5043606;28;20389;-37
2023/01/13 05:57:29;;;;;;;;;;;;;;;15.65;nan;100347.25;5043747;28;20340;-36
2023/01/13 05:59:54;;;;;;;;;;;;;;;15.63;nan;100351.31;5037501;28;20410;-36
2023/01/13 06:02:19;;;;;;;;;;;;;;;15.61;nan;100354.28;5042616;28;19962;-36
2023/01/13 06:04:44;;;;;;;;;;;;;;;15.60;nan;100365.38;5043670;28;19925;-36
2023/01/13 06:07:10;;;;;;;;;;;;;;;15.53;nan;100359.50;5043131;28;19925;-37
2023/01/13 06:09:35;;;;;;;;;;;;;;;15.55;nan;100360.03;5037819;28;19917;-36
2023/01/13 06:12:00;;;;;;;;;;;;;;;15.52;nan;100364.13;5034065;28;19925;-36
2023/01/13 06:14:38;;;;;;;;;;;;;;;15.54;nan;100366.53;5037144;28;19970;-36
2023/01/13 06:17:05;;;;;;;;;;;;;;;15.54;nan;100371.91;5042038;28;20004;-36
2023/01/13 06:19:30;;;;;;;;;;;;;;;15.53;nan;100381.91;5040598;28;19991;-36
2023/01/13 06:21:56;;;;;;;;;;;;;;;15.50;nan;100385.22;5042477;28;20394;-36
2023/01/13 06:24:21;;;;;;;;;;;;;;;15.48;nan;100378.50;5038774;28;19925;-36
2023/01/13 06:26:47;;;;;;;;;;;;;;;15.52;nan;100387.63;5041088;28;19929;-36
2023/01/13 06:29:15;;;;;;;;;;;;;;;15.57;nan;100398.34;5037687;28;20507;-36
2023/01/13 06:31:41;;;;;;;;;;;;;;;15.56;nan;100384.03;5042129;28;19917;-37
2023/01/13 06:34:11;;;;;;;;;;;;;;;15.59;nan;100390.78;5047239;28;19924;-36
2023/01/13 06:36:39;;;;;;;;;;;;;;;15.56;nan;100388.63;5039850;28;20394;-36
2023/01/13 06:39:05;;;;;;;;;;;;;;;15.55;nan;100384.34;5038695;28;19943;-36
2023/01/13 06:44:16;;;;;;;;;;;;;;;15.58;nan;100368.34;5043230;28;19927;-37
2023/01/13 06:46:42;;;;;;;;;;;;;;;15.55;nan;100381.63;5041074;28;19920;-36
2023/01/13 06:49:08;;;;;;;;;;;;;;;15.55;nan;100385.13;5040796;28;19917;-36
2023/01/13 06:51:33;;;;;;;;;;;;;;;15.56;nan;100385.94;5041449;28;19963;-36
2023/01/13 06:53:59;;;;;;;;;;;;;;;15.56;nan;100381.34;5041104;28;20302;-36
2023/01/13 06:56:24;;;;;;;;;;;;;;;15.62;nan;100380.22;5042948;28;20414;-36
2023/01/13 06:58:49;;;;;;;;;;;;;;;15.59;nan;100366.47;5040459;28;19921;-36
2023/01/13 07:01:15;;;;;;;;;;;;;;;15.55;nan;100362.72;5042372;28;20142;-36
2023/01/13 07:03:40;;;;;;;;;;;;;;;15.54;nan;100356.53;5043775;28;19921;-36
2023/01/13 07:06:06;;;;;;;;;;;;;;;15.50;nan;100354.69;5043748;28;19989;-36
2023/01/13 07:08:31;;;;;;;;;;;;;;;15.54;nan;100375.44;5046956;28;19916;-36
2023/01/13 07:10:56;;;;;;;;;;;;;;;15.54;nan;100383.53;5042822;28;20409;-37
2023/01/13 07:16:07;;;;;;;;;;;;;;;15.51;nan;100399.50;5043758;28;19940;-36
2023/01/13 07:18:33;;;;;;;;;;;;;;;15.50;nan;100400.59;5046689;28;19917;-36
2023/01/13 07:20:59;;;;;;;;;;;;;;;15.57;nan;100403.75;5047473;28;19963;-36
2023/01/13 07:23:28;;;;;;;;;;;;;;;15.51;nan;100399.50;5047829;28;19924;-36
2023/01/13 07:25:55;;;;;;;;;;;;;;;15.55;nan;100401.34;5046545;28;19921;-37
2023/01/13 07:28:20;;;;;;;;;;;;;;;15.58;nan;100410.75;5045565;28;19943;-36
2023/01/13 07:30:45;;;;;;;;;;;;;;;15.57;nan;100407.25;5044454;28;19924;-36
2023/01/13 07:33:11;;;;;;;;;;;;;;;15.57;nan;100385.63;5048092;28;20057;-36
2023/01/13 07:35:36;;;;;;;;;;;;;;;15.59;nan;100380.78;5044049;28;19960;-36
2023/01/13 07:38:01;;;;;;;;;;;;;;;15.64;nan;100393.44;5046958;28;19921;-36
2023/01/13 07:40:27;;;;;;;;;;;;;;;15.68;nan;100407.97;5042028;28;20032;-36
2023/01/13 07:45:36;;;;;;;;;;;;;;;15.58;nan;100426.94;5044991;28;19987;-37
2023/01/13 07:48:01;;;;;;;;;;;;;;;15.60;nan;100427.50;5042851;28;19936;-36
2023/01/13 07:50:26;;;;;;;;;;;;;;;15.59;nan;100424.00;5042368;28;19973;-36
2023/01/13 07:52:52;;;;;;;;;;;;;;;15.61;nan;100427.19;5043159;28;19921;-36
2023/01/13 07:55:17;;;;;;;;;;;;;;;15.61;nan;100411.00;5043434;28;19925;-37
2023/01/13 07:57:42;;;;;;;;;;;;;;;15.65;nan;100411.25;5039012;28;20469;-36
2023/01/13 08:00:08;;;;;;;;;;;;;;;15.64;nan;100413.16;5042250;28;19925;-36
2023/01/13 08:02:33;;;;;;;;;;;;;;;15.59;nan;100396.19;5038125;28;19924;-36
2023/01/13 08:04:59;;;;;;;;;;;;;;;15.55;nan;100395.94;5038509;28;19931;-36
2023/01/13 08:07:24;;;;;;;;;;;;;;;15.58;nan;100421.56;5040408;28;19924;-36
2023/01/13 08:09:49;;;;;;;;;;;;;;;15.56;nan;100429.13;5039437;28;19921;-37
2023/01/13 08:14:59;;;;;;;;;;;;;;;15.54;nan;100434.03;5038458;28;19927;-37
2023/01/13 08:17:24;;;;;;;;;;;;;;;15.50;nan;100414.09;5037563;28;19924;-36
2023/01/13 08:19:49;;;;;;;;;;;;;;;15.53;nan;100427.03;5037708;28;20334;-36
2023/01/13 08:22:14;;;;;;;;;;;;;;;15.53;nan;100424.31;5040150;28;20018;-36
2023/01/13 08:24:40;;;;;;;;;;;;;;;15.51;nan;100415.72;5037638;28;19948;-36
2023/01/13 08:27:06;;;;;;;;;;;;;;;15.50;nan;100414.91;5037637;28;19916;-36
2023/01/13 08:29:31;;;;;;;;;;;;;;;15.52;nan;100425.41;5042681;28;20033;-36
2023/01/13 08:31:56;;;;;;;;;;;;;;;15.46;nan;100424.69;5040872;28;19921;-36
2023/01/13 08:34:21;;;;;;;;;;;;;;;15.46;nan;100423.88;5039348;28;19925;-36
2023/01/13 08:36:50;;;;;;;;;;;;;;;15.42;nan;100439.81;5042769;28;19925;-36
2023/01/13 08:39:15;;;;;;;;;;;;;;;15.40;nan;100440.09;5043841;28;19955;-36
2023/01/13 08:41:53;;;;;;;;;;;;;;;15.40;nan;100429.31;5040747;28;19956;-36
2023/01/13 08:44:19;;;;;;;;;;;;;;;15.39;nan;100429.59;5041548;28;19947;-36
2023/01/13 08:46:44;;;;;;;;;;;;;;;15.38;nan;100439.59;5037831;28;19920;-35
2023/01/13 08:49:10;;;;;;;;;;;;;;;15.37;nan;100442.59;5041971;28;20634;-36
2023/01/13 08:51:35;;;;;;;;;;;;;;;15.34;nan;100454.75;5042646;28;20402;-36
2023/01/13 08:54:01;;;;;;;;;;;;;;;15.36;nan;100452.59;5045856;28;19974;-36
2023/01/13 08:56:27;;;;;;;;;;;;;;;15.32;nan;100456.94;5042625;28;20361;-37
2023/01/13 08:58:52;;;;;;;;;;;;;;;15.34;nan;100473.66;5042941;28;19927;-36
2023/01/13 09:01:20;;;;;;;;;;;;;;;15.38;nan;100468.50;5042345;28;19925;-35
2023/01/13 09:03:45;;;;;;;;;;;;;;;15.38;nan;100474.69;5039453;28;19983;-36
2023/01/13 09:06:10;;;;;;;;;;;;;;;15.35;nan;100472.56;5038779;28;20374;-36
2023/01/13 09:08:36;;;;;;;;;;;;;;;15.37;nan;100467.69;5042532;28;19928;-36
2023/01/13 09:13:10;;;;;;;;;;;;;;;15.40;nan;100469.81;5042461;28;20398;-37
2023/01/13 09:13:46;;;;;;;;;;;;;;;15.36;nan;100460.69;5041394;28;20652;-36
2023/01/13 09:16:12;;;;;;;;;;;;;;;15.36;nan;100463.38;5043383;28;20011;-36
2023/01/13 09:18:37;;;;;;;;;;;;;;;15.37;nan;100473.09;5040443;28;19928;-36
2023/01/13 09:21:02;;;;;;;;;;;;;;;15.39;nan;100470.91;5041727;28;19920;-36
2023/01/13 09:23:28;;;;;;;;;;;;;;;15.38;nan;100468.50;5042504;28;20260;-37
2023/01/13 09:25:53;;;;;;;;;;;;;;;15.37;nan;100458.78;5038638;28;19957;-37
2023/01/13 09:28:18;;;;;;;;;;;;;;;15.35;nan;100461.78;5040807;28;19924;-37
2023/01/13 09:30:44;;;;;;;;;;;;;;;15.38;nan;100482.78;5040074;28;19917;-36
2023/01/13 09:35:56;;;;;;;;;;;;;;;15.42;nan;100467.63;5040253;28;19931;-36
2023/01/13 09:38:22;;;;;;;;;;;;;;;15.47;nan;100461.38;5039945;28;19986;-36
2023/01/13 09:40:48;;;;;;;;;;;;;;;15.45;nan;100471.66;5039927;28;19982;-36
2023/01/13 09:49:02;;;;;;;;;;;;;;;15.48;nan;100416.28;5038733;28;19932;-36
2023/01/13 09:51:51;;;;;;;;;;;;;;;15.47;nan;100410.09;5046069;28;19920;-36
2023/01/13 09:54:24;;;;;;;;;;;;;;;15.53;nan;100430.53;5045646;28;19920;-36
2023/01/13 09:56:49;;;;;;;;;;;;;;;15.59;nan;100428.59;5040297;28;19935;-36
2023/01/13 09:59:15;;;;;;;;;;;;;;;15.55;nan;100403.22;5037895;28;20014;-36
2023/01/13 10:01:40;;;;;;;;;;;;;;;15.56;nan;100416.44;5041609;28;19927;-36
2023/01/13 10:04:13;;;;;;;;;;;;;;;15.59;nan;100390.78;5041848;28;21080;-36
2023/01/13 10:06:42;;;;;;;;;;;;;;;15.63;nan;100392.63;5034127;28;19975;-37
2023/01/13 10:09:13;;;;;;;;;;;;;;;15.67;nan;100425.25;5041941;28;19927;-36
2023/01/13 10:14:45;;;;;;;;;;;;;;;15.74;nan;100416.78;5042036;28;19977;-37
2023/01/13 10:17:20;;;;;;;;;;;;;;;15.76;nan;100420.00;5040643;28;20382;-36
2023/01/13 10:19:56;;;;;;;;;;;;;;;15.77;nan;100424.31;5040127;28;19944;-36
2023/01/13 10:22:34;;;;;;;;;;;;;;;15.81;nan;100417.25;5043247;28;20533;-36
2023/01/13 10:25:07;;;;;;;;;;;;;;;15.85;nan;100423.69;5045019;28;19921;-36
2023/01/13 10:27:34;;;;;;;;;;;;;;;15.92;nan;100416.00;5035567;28;20006;-36
2023/01/13 10:30:18;;;;;;;;;;;;;;;15.93;nan;100406.81;5039132;28;20292;-36
2023/01/13 10:32:54;;;;;;;;;;;;;;;15.80;nan;100400.25;5042043;28;19924;-36
2023/01/13 10:35:38;;;;;;;;;;;;;;;15.81;nan;100403.75;5041554;28;19925;-37
2023/01/13 10:38:03;;;;;;;;;;;;;;;15.85;nan;100410.16;5035478;28;19925;-36
2023/01/13 10:40:29;;;;;;;;;;;;;;;16.00;nan;100404.56;5046803;28;19920;-36
2023/01/13 10:43:05;;;;;;;;;;;;;;;16.11;nan;100405.19;5045530;28;19940;-37
2023/01/13 10:45:30;;;;;;;;;;;;;;;16.23;nan;100395.56;5047748;28;19927;-36
2023/01/13 10:48:04;;;;;;;;;;;;;;;16.30;nan;100390.56;5043029;28;19916;-36
2023/01/13 10:50:30;;;;;;;;;;;;;;;16.44;nan;100406.03;5045094;28;19932;-37
2023/01/13 10:53:14;;;;;;;;;;;;;;;16.47;nan;100400.03;5044595;28;20133;-36
2023/01/13 10:55:40;;;;;;;;;;;;;;;16.53;nan;100407.78;5046234;28;19921;-37
2023/01/13 10:58:19;;;;;;;;;;;;;;;16.59;nan;100409.31;5042690;28;19932;-37
2023/01/13 11:00:44;;;;;;;;;;;;;;;16.62;nan;100414.13;5040757;28;20028;-36
2023/01/13 11:03:17;;;;;;;;;;;;;;;16.58;nan;100417.72;5040706;28;20369;-36
2023/01/13 11:05:47;;;;;;;;;;;;;;;16.50;nan;100410.25;5042825;28;19941;-36
2023/01/13 11:08:15;;;;;;;;;;;;;;;16.57;nan;100422.31;5039652;28;20015;-36
2023/01/13 11:10:44;;;;;;;;;;;;;;;16.57;nan;100419.63;5042708;28;19917;-35
2023/01/13 11:13:17;;;;;;;;;;;;;;;16.42;nan;100419.06;5046123;28;19925;-36
2023/01/13 11:15:42;;;;;;;;;;;;;;;16.43;nan;100426.88;5045240;28;19974;-36
2023/01/13 11:18:21;;;;;;;;;;;;;;;16.42;nan;100414.44;5040425;28;20383;-36
2023/01/13 11:20:47;;;;;;;;;;;;;;;16.32;nan;100414.59;5040160;28;19986;-36
2023/01/13 11:23:34;;;;;;;;;;;;;;;16.28;nan;100417.09;5045526;28;20527;-36
2023/01/13 11:26:09;;;;;;;;;;;;;;;16.18;nan;100419.97;5042916;28;20426;-36
2023/01/13 11:28:40;;;;;;;;;;;;;;;16.12;nan;100412.22;5043689;28;19983;-36
2023/01/13 11:31:08;;;;;;;;;;;;;;;16.14;nan;100415.41;5043238;28;19929;-36
2023/01/13 11:33:39;;;;;;;;;;;;;;;16.14;nan;100412.72;5045309;28;19927;-36
2023/01/13 11:36:07;;;;;;;;;;;;;;;16.09;nan;100418.19;5042547;28;19917;-36
2023/01/13 11:38:46;;;;;;;;;;;;;;;16.11;nan;100413.31;5038793;28;19917;-37
2023/01/13 11:41:21;;;;;;;;;;;;;;;16.11;nan;100414.09;5043523;28;19952;-36
2023/01/13 11:43:56;;;;;;;;;;;;;;;16.24;nan;100424.19;5041218;28;19968;-36
2023/01/13 11:46:25;;;;;;;;;;;;;;;16.27;nan;100422.78;5042690;28;20360;-36
2023/01/13 11:48:50;;;;;;;;;;;;;;;16.28;nan;100419.00;5044593;28;20386;-36
2023/01/13 11:51:27;;;;;;;;;;;;;;;16.30;nan;100423.00;5037736;28;19921;-36
2023/01/13 11:53:59;;;;;;;;;;;;;;;16.28;nan;100416.28;5045233;28;19971;-36
2023/01/13 11:56:57;;;;;;;;;;;;;;;16.28;nan;100413.59;5044604;28;19935;-36
2023/01/13 11:59:31;;;;;;;;;;;;;;;16.18;nan;100405.66;4995377;28;19924;-36
2023/01/13 12:02:03;;;;;;;;;;;;;;;16.15;nan;100417.81;5044016;28;20249;-36
2023/01/13 12:04:36;;;;;;;;;;;;;;;16.10;nan;100417.91;5043664;28;20402;-37
2023/01/13 12:07:20;;;;;;;;;;;;;;;16.14;nan;100420.81;5044819;28;19932;-36
2023/01/13 12:09:51;;;;;;;;;;;;;;;16.11;nan;100418.72;5038541;28;19925;-36
2023/01/13 12:12:40;;;;;;;;;;;;;;;16.14;nan;100427.03;5044281;28;20393;-36
2023/01/13 12:15:21;;;;;;;;;;;;;;;16.22;nan;100433.69;5030432;28;19921;-37
2023/01/13 12:17:55;;;;;;;;;;;;;;;16.21;nan;100426.69;5037474;28;19928;-36
2023/01/13 12:20:23;;;;;;;;;;;;;;;16.18;nan;100427.28;5040938;28;19924;-36
2023/01/13 12:22:51;;;;;;;;;;;;;;;16.15;nan;100419.72;5045765;28;19939;-36
2023/01/13 12:25:24;;;;;;;;;;;;;;;16.11;nan;100424.91;5043762;28;19925;-36
2023/01/13 12:27:50;;;;;;;;;;;;;;;16.14;nan;100427.03;5044471;28;19925;-36
2023/01/13 12:30:24;;;;;;;;;;;;;;;16.22;nan;100433.69;5046967;28;19932;-36
2023/01/13 12:32:51;;;;;;;;;;;;;;;16.29;nan;100420.59;5041085;28;19925;-36
2023/01/13 12:35:19;;;;;;;;;;;;;;;16.27;nan;100430.91;5041116;28;20391;-36
2023/01/13 12:38:14;;;;;;;;;;;;;;;16.21;nan;100432.09;5043327;28;19928;-36
2023/01/13 12:40:47;;;;;;;;;;;;;;;16.21;nan;100418.56;5031755;28;19925;-36
2023/01/13 12:46:21;;;;;;;;;;;;;;;16.16;nan;100426.75;5042700;28;20401;-36
2023/01/13 12:48:53;;;;;;;;;;;;;;;16.13;nan;100421.91;5033828;28;19931;-36
2023/01/13 12:51:25;;;;;;;;;;;;;;;16.07;nan;100420.41;5041359;28;19923;-36
2023/01/13 12:53:51;;;;;;;;;;;;;;;16.04;nan;100429.91;5042075;28;20310;-36
2023/01/13 12:56:31;;;;;;;;;;;;;;;16.07;nan;100431.22;5043655;28;19925;-36
2023/01/13 12:59:15;;;;;;;;;;;;;;;16.00;nan;100429.69;5040502;28;19924;-37
2023/01/13 13:01:41;;;;;;;;;;;;;;;16.00;nan;100426.97;5039842;28;20389;-36
2023/01/13 13:04:08;;;;;;;;;;;;;;;15.93;nan;100434.63;5035210;28;20023;-36
2023/01/13 13:06:35;;;;;;;;;;;;;;;15.95;nan;100447.84;5035129;28;19959;-36
2023/01/13 13:09:02;;;;;;;;;;;;;;;16.02;nan;100437.50;5038161;28;20347;-36
2023/01/13 13:14:37;;;;;;;;;;;;;;;16.29;nan;100450.34;5045738;28;19998;-36
2023/01/13 13:17:03;;;;;;;;;;;;;;;16.33;nan;100454.06;5040164;28;19920;-36
2023/01/13 13:19:29;;;;;;;;;;;;;;;16.72;nan;100450.25;5045103;28;19963;-36
2023/01/13 13:22:16;;;;;;;;;;;;;;;17.41;nan;100453.88;5041356;28;20402;-36
2023/01/13 13:24:42;;;;;;;;;;;;;;;18.38;nan;100450.75;5042299;28;19928;-37
2023/01/13 13:27:17;;;;;;;;;;;;;;;18.28;nan;100448.25;5044172;28;19932;-36
2023/01/13 13:29:48;;;;;;;;;;;;;;;17.88;nan;100454.59;5045961;28;19971;-36
2023/01/13 13:32:17;;;;;;;;;;;;;;;17.46;nan;100462.72;5039631;28;20218;-36
2023/01/13 13:34:54;;;;;;;;;;;;;;;17.45;nan;100457.59;5039713;28;19924;-37
2023/01/13 13:37:27;;;;;;;;;;;;;;;17.98;nan;100457.88;5042454;28;20008;-36
2023/01/13 13:48:23;;;;;;;;;;;;;;;17.91;nan;100464.81;5041918;28;19967;-36
2023/01/13 13:50:50;;;;;;;;;;;;;;;17.65;nan;100459.09;5044696;28;19920;-36
2023/01/13 13:53:17;;;;;;;;;;;;;;;17.71;nan;100466.84;5046861;28;19943;-35
2023/01/13 13:55:51;;;;;;;;;;;;;;;18.02;nan;100467.00;5045182;28;20020;-36
2023/01/13 13:58:17;;;;;;;;;;;;;;;18.23;nan;100467.34;5043837;28;20715;-36
2023/01/13 14:00:46;;;;;;;;;;;;;;;18.47;nan;100463.56;5041741;28;19921;-36
2023/01/13 14:03:17;;;;;;;;;;;;;;;18.47;nan;100471.69;5046642;28;19970;-36
2023/01/13 14:05:52;;;;;;;;;;;;;;;18.26;nan;100474.06;5040071;28;20008;-36
2023/01/13 14:08:17;;;;;;;;;;;;;;;18.17;nan;100478.63;5038413;28;20394;-36
2023/01/13 14:10:43;;;;;;;;;;;;;;;17.95;nan;100476.63;5045394;28;19931;-36